NCAR-RAP Real-Time Weather Data

Output produced by METARs form (01 October 2022  05:00 UTC)
found at http://weather.rap.ucar.edu/surface/
 
VTBS 010430Z 19011KT 9999 SCT020 31/24 Q1008 NOSIG
VTBS 010400Z 18012KT 9999 SCT020 30/23 Q1009 NOSIG
VTBS 010330Z 19011KT 9999 SCT020 31/24 Q1009 NOSIG
VTBS 010300Z 19011KT 9999 SCT020 30/24 Q1009 NOSIG
VTBS 010230Z 20010KT 9999 FEW020 SCT090 30/23 Q1009 NOSIG
VTBS 010200Z 19010KT 9999 FEW020 SCT090 29/24 Q1009 NOSIG
VTBS 010130Z 19009KT 9999 FEW020 SCT090 29/24 Q1009 NOSIG
VTBS 010100Z 18007KT 9999 FEW020 29/24 Q1008 NOSIG
VTBS 010030Z 17007KT 9999 FEW020 28/24 Q1007 NOSIG
VTBS 010000Z 17006KT 9999 FEW020 28/24 Q1007 NOSIG
VTBS 302330Z 18006KT 9999 FEW020 27/24 Q1007 NOSIG
VTBS 302300Z 18007KT 9999 FEW020 28/23 Q1006 NOSIG
VTBS 302230Z 17006KT 9999 FEW020 27/23 Q1006 NOSIG
VTBS 302200Z 17005KT 9999 FEW020 28/23 Q1006 NOSIG
VTBS 302130Z 17004KT 9999 FEW020 28/23 Q1006 NOSIG
VTBS 302100Z 17004KT 130V190 9999 FEW020 27/23 Q1006 NOSIG
VTBS 302030Z 17004KT 080V190 9999 FEW020 28/23 Q1006 NOSIG
VTBS 302000Z 17007KT 130V200 9999 FEW020 28/24 Q1006 NOSIG
VTBS 301930Z 18005KT 9999 FEW020 28/24 Q1006 NOSIG
VTBS 301900Z 18007KT 9999 FEW020 28/24 Q1006 NOSIG
VTBS 301830Z 20005KT 9999 FEW020 27/24 Q1006 NOSIG
VTBS 301800Z 18006KT 9999 FEW020 28/24 Q1006 NOSIG
VTBS 301730Z 16007KT 9999 FEW020 29/23 Q1006 NOSIG